sensor_id;sensor_type;location;lat;lon;timestamp;pressure;altitude;pressure_sealevel;temperature;humidity
5651;BME280;40241;52.684;9.758;2023-04-26T00:01:04;101351.53;;;7.25;54.25
5651;BME280;40241;52.684;9.758;2023-04-26T00:03:30;101350.03;;;7.24;54.33
5651;BME280;40241;52.684;9.758;2023-04-26T00:05:55;101356.28;;;7.25;54.26
5651;BME280;40241;52.684;9.758;2023-04-26T00:08:20;101354.13;;;7.20;54.01
5651;BME280;40241;52.684;9.758;2023-04-26T00:10:46;101355.94;;;7.14;54.32
5651;BME280;40241;52.684;9.758;2023-04-26T00:13:11;101356.06;;;7.10;54.29
5651;BME280;40241;52.684;9.758;2023-04-26T00:15:36;101350.28;;;7.08;54.54
5651;BME280;40241;52.684;9.758;2023-04-26T00:18:01;101348.75;;;7.07;54.28
5651;BME280;40241;52.684;9.758;2023-04-26T00:20:27;101346.16;;;7.04;54.40
5651;BME280;40241;52.684;9.758;2023-04-26T00:22:53;101351.00;;;7.00;54.46
5651;BME280;40241;52.684;9.758;2023-04-26T00:25:18;101338.97;;;6.97;54.71
5651;BME280;40241;52.684;9.758;2023-04-26T00:27:43;101348.53;;;6.93;54.67
5651;BME280;40241;52.684;9.758;2023-04-26T00:30:09;101347.91;;;6.89;54.73
5651;BME280;40241;52.684;9.758;2023-04-26T00:32:35;101349.88;;;6.88;55.04
5651;BME280;40241;52.684;9.758;2023-04-26T00:35:02;101358.09;;;6.88;54.89
5651;BME280;40241;52.684;9.758;2023-04-26T00:37:28;101348.69;;;6.89;54.63
5651;BME280;40241;52.684;9.758;2023-04-26T00:39:53;101362.34;;;6.89;54.77
5651;BME280;40241;52.684;9.758;2023-04-26T00:42:19;101355.34;;;6.88;54.83
5651;BME280;40241;52.684;9.758;2023-04-26T00:44:44;101347.59;;;6.87;54.53
5651;BME280;40241;52.684;9.758;2023-04-26T00:47:09;101350.03;;;6.85;54.67
5651;BME280;40241;52.684;9.758;2023-04-26T00:49:35;101342.28;;;6.83;54.99
5651;BME280;40241;52.684;9.758;2023-04-26T00:52:01;101365.97;;;6.86;54.76
5651;BME280;40241;52.684;9.758;2023-04-26T00:54:27;101349.25;;;6.84;54.94
5651;BME280;40241;52.684;9.758;2023-04-26T00:56:53;101352.75;;;6.85;55.01
5651;BME280;40241;52.684;9.758;2023-04-26T00:59:19;101362.94;;;6.84;54.93
5651;BME280;40241;52.684;9.758;2023-04-26T01:01:44;101353.22;;;6.83;54.91
5651;BME280;40241;52.684;9.758;2023-04-26T01:04:11;101350.19;;;6.81;54.80
5651;BME280;40241;52.684;9.758;2023-04-26T01:06:38;101356.53;;;6.78;54.99
5651;BME280;40241;52.684;9.758;2023-04-26T01:09:04;101355.75;;;6.77;55.13
5651;BME280;40241;52.684;9.758;2023-04-26T01:11:35;101356.22;;;6.76;55.17
5651;BME280;40241;52.684;9.758;2023-04-26T01:14:02;101358.19;;;6.75;55.29
5651;BME280;40241;52.684;9.758;2023-04-26T01:16:28;101359.41;;;6.74;54.68
5651;BME280;40241;52.684;9.758;2023-04-26T01:18:54;101370.47;;;6.71;55.11
5651;BME280;40241;52.684;9.758;2023-04-26T01:21:22;101368.66;;;6.68;55.10
5651;BME280;40241;52.684;9.758;2023-04-26T01:23:48;101367.88;;;6.67;55.25
5651;BME280;40241;52.684;9.758;2023-04-26T01:26:14;101365.91;;;6.68;55.44
5651;BME280;40241;52.684;9.758;2023-04-26T01:28:40;101372.47;;;6.70;55.29
5651;BME280;40241;52.684;9.758;2023-04-26T01:31:05;101370.16;;;6.69;55.27
5651;BME280;40241;52.684;9.758;2023-04-26T01:33:31;101373.19;;;6.71;55.25
5651;BME280;40241;52.684;9.758;2023-04-26T01:35:56;101374.75;;;6.72;55.20
5651;BME280;40241;52.684;9.758;2023-04-26T01:38:21;101372.00;;;6.72;55.32
5651;BME280;40241;52.684;9.758;2023-04-26T01:40:47;101373.81;;;6.75;54.88
5651;BME280;40241;52.684;9.758;2023-04-26T01:43:12;101371.84;;;6.75;55.40
5651;BME280;40241;52.684;9.758;2023-04-26T01:45:39;101368.03;;;6.73;55.38
5651;BME280;40241;52.684;9.758;2023-04-26T01:48:05;101370.78;;;6.73;55.29
5651;BME280;40241;52.684;9.758;2023-04-26T01:50:31;101372.47;;;6.70;55.03
5651;BME280;40241;52.684;9.758;2023-04-26T01:52:56;101379.13;;;6.69;55.49
5651;BME280;40241;52.684;9.758;2023-04-26T01:55:21;101384.59;;;6.69;55.53
5651;BME280;40241;52.684;9.758;2023-04-26T01:57:46;101378.03;;;6.67;55.68
5651;BME280;40241;52.684;9.758;2023-04-26T02:00:12;101372.13;;;6.68;55.47
5651;BME280;40241;52.684;9.758;2023-04-26T02:02:38;101364.25;;;6.70;55.45
5651;BME280;40241;52.684;9.758;2023-04-26T02:05:03;101371.22;;;6.71;55.64
5651;BME280;40241;52.684;9.758;2023-04-26T02:07:29;101378.66;;;6.71;55.42
5651;BME280;40241;52.684;9.758;2023-04-26T02:09:54;101373.19;;;6.71;55.50
5651;BME280;40241;52.684;9.758;2023-04-26T02:12:20;101379.59;;;6.68;55.44
5651;BME280;40241;52.684;9.758;2023-04-26T02:14:45;101368.66;;;6.68;55.44
5651;BME280;40241;52.684;9.758;2023-04-26T02:17:11;101376.38;;;6.69;55.47
5651;BME280;40241;52.684;9.758;2023-04-26T02:19:36;101399.34;;;6.72;55.59
5651;BME280;40241;52.684;9.758;2023-04-26T02:22:04;101377.78;;;6.74;55.69
5651;BME280;40241;52.684;9.758;2023-04-26T02:24:30;101377.78;;;6.74;55.84
5651;BME280;40241;52.684;9.758;2023-04-26T02:26:56;101374.16;;;6.77;55.71
5651;BME280;40241;52.684;9.758;2023-04-26T02:29:24;101373.72;;;6.78;55.72
5651;BME280;40241;52.684;9.758;2023-04-26T02:31:50;101384.97;;;6.80;55.27
5651;BME280;40241;52.684;9.758;2023-04-26T02:34:15;101375.97;;;6.80;55.66
5651;BME280;40241;52.684;9.758;2023-04-26T02:36:40;101384.50;;;6.82;55.97
5651;BME280;40241;52.684;9.758;2023-04-26T02:39:06;101383.00;;;6.81;55.23
5651;BME280;40241;52.684;9.758;2023-04-26T02:41:32;101376.75;;;6.80;55.96
5651;BME280;40241;52.684;9.758;2023-04-26T02:43:57;101386.03;;;6.83;55.28
5651;BME280;40241;52.684;9.758;2023-04-26T02:46:23;101384.50;;;6.82;55.79
5651;BME280;40241;52.684;9.758;2023-04-26T02:48:49;101387.84;;;6.77;55.59
5651;BME280;40241;52.684;9.758;2023-04-26T02:51:14;101387.50;;;6.75;55.64
5651;BME280;40241;52.684;9.758;2023-04-26T02:53:40;101385.69;;;6.72;55.54
5651;BME280;40241;52.684;9.758;2023-04-26T02:56:05;101380.66;;;6.70;55.62
5651;BME280;40241;52.684;9.758;2023-04-26T02:58:31;101388.53;;;6.68;55.69
5651;BME280;40241;52.684;9.758;2023-04-26T03:00:57;101387.47;;;6.66;55.64
5651;BME280;40241;52.684;9.758;2023-04-26T03:03:23;101390.31;;;6.62;55.65
5651;BME280;40241;52.684;9.758;2023-04-26T03:05:48;101385.31;;;6.61;55.71
5651;BME280;40241;52.684;9.758;2023-04-26T03:08:14;101383.03;;;6.59;55.69
5651;BME280;40241;52.684;9.758;2023-04-26T03:10:39;101379.97;;;6.57;55.83
5651;BME280;40241;52.684;9.758;2023-04-26T03:13:04;101374.94;;;6.56;55.96
5651;BME280;40241;52.684;9.758;2023-04-26T03:15:30;101388.28;;;6.54;55.76
5651;BME280;40241;52.684;9.758;2023-04-26T03:17:55;101363.69;;;6.54;55.98
5651;BME280;40241;52.684;9.758;2023-04-26T03:20:22;101366.72;;;6.56;56.20
5651;BME280;40241;52.684;9.758;2023-04-26T03:22:48;101371.31;;;6.59;55.99
5651;BME280;40241;52.684;9.758;2023-04-26T03:25:14;101371.31;;;6.59;55.62
5651;BME280;40241;52.684;9.758;2023-04-26T03:27:40;101376.66;;;6.62;56.08
5651;BME280;40241;52.684;9.758;2023-04-26T03:30:06;101371.94;;;6.63;55.90
5651;BME280;40241;52.684;9.758;2023-04-26T03:32:31;101373.47;;;6.64;56.10
5651;BME280;40241;52.684;9.758;2023-04-26T03:34:57;101374.22;;;6.64;55.83
5651;BME280;40241;52.684;9.758;2023-04-26T03:37:22;101375.75;;;6.65;56.20
5651;BME280;40241;52.684;9.758;2023-04-26T03:39:48;101374.22;;;6.64;56.20
5651;BME280;40241;52.684;9.758;2023-04-26T03:42:14;101369.22;;;6.63;56.26
5651;BME280;40241;52.684;9.758;2023-04-26T03:44:40;101382.56;;;6.61;56.23
5651;BME280;40241;52.684;9.758;2023-04-26T03:47:05;101379.84;;;6.61;56.21
5651;BME280;40241;52.684;9.758;2023-04-26T03:49:31;101374.06;;;6.59;56.07
5651;BME280;40241;52.684;9.758;2023-04-26T03:51:56;101369.34;;;6.59;55.84
5651;BME280;40241;52.684;9.758;2023-04-26T03:54:21;101369.47;;;6.56;55.83
5651;BME280;40241;52.684;9.758;2023-04-26T03:56:47;101370.81;;;6.51;55.76
5651;BME280;40241;52.684;9.758;2023-04-26T03:59:12;101376.28;;;6.51;56.08
5651;BME280;40241;52.684;9.758;2023-04-26T04:01:37;101377.59;;;6.47;55.84
5651;BME280;40241;52.684;9.758;2023-04-26T04:04:03;101378.84;;;6.46;56.17
5651;BME280;40241;52.684;9.758;2023-04-26T04:06:28;101375.78;;;6.44;56.29
5651;BME280;40241;52.684;9.758;2023-04-26T04:08:53;101379.09;;;6.39;56.00
5651;BME280;40241;52.684;9.758;2023-04-26T04:11:20;101377.69;;;6.34;55.92
5651;BME280;40241;52.684;9.758;2023-04-26T04:13:45;101383.59;;;6.33;56.51
5651;BME280;40241;52.684;9.758;2023-04-26T04:16:10;101387.22;;;6.30;56.34
5651;BME280;40241;52.684;9.758;2023-04-26T04:18:36;101384.94;;;6.28;56.38
5651;BME280;40241;52.684;9.758;2023-04-26T04:21:01;101388.44;;;6.29;56.30
5651;BME280;40241;52.684;9.758;2023-04-26T04:23:27;101387.22;;;6.30;56.29
5651;BME280;40241;52.684;9.758;2023-04-26T04:25:52;101389.84;;;6.33;56.55
5651;BME280;40241;52.684;9.758;2023-04-26T04:28:18;101392.88;;;6.35;56.35
5651;BME280;40241;52.684;9.758;2023-04-26T04:30:43;101393.63;;;6.36;56.19
5651;BME280;40241;52.684;9.758;2023-04-26T04:33:11;101389.50;;;6.31;56.19
5651;BME280;40241;52.684;9.758;2023-04-26T04:35:36;101397.25;;;6.33;56.15
5651;BME280;40241;52.684;9.758;2023-04-26T04:38:01;101406.22;;;6.33;56.38
5651;BME280;40241;52.684;9.758;2023-04-26T04:40:27;101403.03;;;6.35;56.36
5651;BME280;40241;52.684;9.758;2023-04-26T04:42:52;101402.28;;;6.34;56.28
5651;BME280;40241;52.684;9.758;2023-04-26T04:45:19;101408.50;;;6.35;56.29
5651;BME280;40241;52.684;9.758;2023-04-26T04:47:45;101412.00;;;6.35;56.38
5651;BME280;40241;52.684;9.758;2023-04-26T04:50:11;101418.13;;;6.39;56.40
5651;BME280;40241;52.684;9.758;2023-04-26T04:52:36;101410.09;;;6.45;56.41
5651;BME280;40241;52.684;9.758;2023-04-26T04:55:02;101409.06;;;6.51;56.53
5651;BME280;40241;52.684;9.758;2023-04-26T04:57:29;101414.75;;;6.57;56.68
5651;BME280;40241;52.684;9.758;2023-04-26T04:59:54;101415.84;;;6.59;56.40
5651;BME280;40241;52.684;9.758;2023-04-26T05:02:19;101416.16;;;6.61;56.32
5651;BME280;40241;52.684;9.758;2023-04-26T05:04:45;101414.28;;;6.58;56.36
5651;BME280;40241;52.684;9.758;2023-04-26T05:07:10;101412.00;;;6.57;56.09
5651;BME280;40241;52.684;9.758;2023-04-26T05:09:36;101412.13;;;6.53;56.25
5651;BME280;40241;52.684;9.758;2023-04-26T05:12:02;101415.94;;;6.56;56.52
5651;BME280;40241;52.684;9.758;2023-04-26T05:14:28;101412.00;;;6.57;56.36
5651;BME280;40241;52.684;9.758;2023-04-26T05:16:54;101415.50;;;6.57;56.31
5651;BME280;40241;52.684;9.758;2023-04-26T05:19:19;101413.53;;;6.58;56.65
5651;BME280;40241;52.684;9.758;2023-04-26T05:21:45;101410.69;;;6.61;56.54
5651;BME280;40241;52.684;9.758;2023-04-26T05:24:10;101417.84;;;6.68;56.73
5651;BME280;40241;52.684;9.758;2023-04-26T05:26:35;101416.53;;;6.72;56.52
5651;BME280;40241;52.684;9.758;2023-04-26T05:29:01;101426.13;;;6.77;56.62
5651;BME280;40241;52.684;9.758;2023-04-26T05:31:26;101430.69;;;6.80;56.87
5651;BME280;40241;52.684;9.758;2023-04-26T05:33:51;101424.94;;;6.87;56.69
5651;BME280;40241;52.684;9.758;2023-04-26T05:36:17;101423.78;;;6.97;56.49
5651;BME280;40241;52.684;9.758;2023-04-26T05:38:42;101424.03;;;7.12;56.63
5651;BME280;40241;52.684;9.758;2023-04-26T05:41:08;101432.91;;;7.25;56.54
5651;BME280;40241;52.684;9.758;2023-04-26T05:43:33;101421.53;;;7.35;56.33
5651;BME280;40241;52.684;9.758;2023-04-26T05:45:58;101421.25;;;7.42;56.20
5651;BME280;40241;52.684;9.758;2023-04-26T05:48:24;101428.72;;;7.51;56.23
5651;BME280;40241;52.684;9.758;2023-04-26T05:50:50;101434.38;;;7.56;55.94
5651;BME280;40241;52.684;9.758;2023-04-26T05:53:16;101430.13;;;7.55;56.16
5651;BME280;40241;52.684;9.758;2023-04-26T05:55:43;101434.22;;;7.51;55.80
5651;BME280;40241;52.684;9.758;2023-04-26T05:58:09;101430.38;;;7.48;55.92
5651;BME280;40241;52.684;9.758;2023-04-26T06:00:34;101424.59;;;7.46;56.03
5651;BME280;40241;52.684;9.758;2023-04-26T06:03:01;101420.66;;;7.47;55.93
5651;BME280;40241;52.684;9.758;2023-04-26T06:05:26;101425.53;;;7.52;56.25
5651;BME280;40241;52.684;9.758;2023-04-26T06:07:52;101428.13;;;7.56;56.40
5651;BME280;40241;52.684;9.758;2023-04-26T06:10:18;101429.19;;;7.58;56.30
5651;BME280;40241;52.684;9.758;2023-04-26T06:12:43;101419.47;;;7.57;56.16
5651;BME280;40241;52.684;9.758;2023-04-26T06:15:09;101434.84;;;7.64;56.54
5651;BME280;40241;52.684;9.758;2023-04-26T06:17:35;101436.09;;;7.72;56.35
5651;BME280;40241;52.684;9.758;2023-04-26T06:20:00;101441.72;;;7.78;56.54
5651;BME280;40241;52.684;9.758;2023-04-26T06:22:26;101442.97;;;7.86;56.45
5651;BME280;40241;52.684;9.758;2023-04-26T06:24:51;101442.03;;;7.89;56.30
5651;BME280;40241;52.684;9.758;2023-04-26T06:27:17;101448.16;;;7.93;56.40
5651;BME280;40241;52.684;9.758;2023-04-26T06:29:42;101453.47;;;7.96;56.22
5651;BME280;40241;52.684;9.758;2023-04-26T06:32:08;101442.22;;;8.03;56.14
5651;BME280;40241;52.684;9.758;2023-04-26T06:34:33;101438.13;;;8.08;56.11
5651;BME280;40241;52.684;9.758;2023-04-26T06:36:58;101450.31;;;8.16;56.15
5651;BME280;40241;52.684;9.758;2023-04-26T06:39:24;101442.44;;;8.27;56.12
5651;BME280;40241;52.684;9.758;2023-04-26T06:41:49;101457.34;;;8.35;55.79
5651;BME280;40241;52.684;9.758;2023-04-26T06:44:15;101453.06;;;8.43;55.93
5651;BME280;40241;52.684;9.758;2023-04-26T06:46:40;101451.09;;;8.53;55.68
5651;BME280;40241;52.684;9.758;2023-04-26T06:49:05;101468.75;;;8.61;55.72
5651;BME280;40241;52.684;9.758;2023-04-26T06:51:31;101445.72;;;8.67;55.56
5651;BME280;40241;52.684;9.758;2023-04-26T06:53:56;101450.78;;;8.78;55.69
5651;BME280;40241;52.684;9.758;2023-04-26T06:56:25;101448.75;;;8.87;55.40
5651;BME280;40241;52.684;9.758;2023-04-26T06:59:04;101449.81;;;8.90;55.43
5651;BME280;40241;52.684;9.758;2023-04-26T07:01:30;101447.34;;;9.01;55.42
5651;BME280;40241;52.684;9.758;2023-04-26T07:04:05;101453.88;;;9.13;55.43
5651;BME280;40241;52.684;9.758;2023-04-26T07:06:35;101453.53;;;9.20;55.36
5651;BME280;40241;52.684;9.758;2023-04-26T07:09:01;101446.50;;;9.28;55.21
5651;BME280;40241;52.684;9.758;2023-04-26T07:11:29;101457.47;;;9.37;55.02
5651;BME280;40241;52.684;9.758;2023-04-26T07:13:55;101448.56;;;9.42;54.91
5651;BME280;40241;52.684;9.758;2023-04-26T07:16:21;101454.78;;;9.51;54.91
5651;BME280;40241;52.684;9.758;2023-04-26T07:18:46;101451.25;;;9.60;54.89
5651;BME280;40241;52.684;9.758;2023-04-26T07:21:17;101451.44;;;9.80;54.97
5651;BME280;40241;52.684;9.758;2023-04-26T07:23:42;101455.88;;;10.01;54.66
5651;BME280;40241;52.684;9.758;2023-04-26T07:26:09;101458.06;;;10.21;54.55
5651;BME280;40241;52.684;9.758;2023-04-26T07:28:35;101454.34;;;10.47;54.24
5651;BME280;40241;52.684;9.758;2023-04-26T07:31:00;101465.91;;;10.66;53.88
5651;BME280;40241;52.684;9.758;2023-04-26T07:33:26;101454.53;;;10.73;53.62
5651;BME280;40241;52.684;9.758;2023-04-26T07:35:56;101465.38;;;10.77;53.29
5651;BME280;40241;52.684;9.758;2023-04-26T07:38:22;101466.59;;;10.76;53.21
5651;BME280;40241;52.684;9.758;2023-04-26T07:40:48;101461.47;;;10.69;53.13
5651;BME280;40241;52.684;9.758;2023-04-26T07:43:14;101471.47;;;10.81;53.45
5651;BME280;40241;52.684;9.758;2023-04-26T07:45:41;101472.22;;;10.96;53.19
5651;BME280;40241;52.684;9.758;2023-04-26T07:48:06;101463.88;;;11.05;53.13
5651;BME280;40241;52.684;9.758;2023-04-26T07:50:32;101468.03;;;11.15;52.83
5651;BME280;40241;52.684;9.758;2023-04-26T07:52:57;101477.81;;;11.30;52.84
5651;BME280;40241;52.684;9.758;2023-04-26T07:55:23;101470.47;;;11.42;52.58
5651;BME280;40241;52.684;9.758;2023-04-26T07:57:48;101470.63;;;11.53;52.45
5651;BME280;40241;52.684;9.758;2023-04-26T08:00:13;101472.72;;;11.58;52.39
5651;BME280;40241;52.684;9.758;2023-04-26T08:02:40;101468.63;;;11.68;52.31
5651;BME280;40241;52.684;9.758;2023-04-26T08:05:06;101471.47;;;11.74;52.08
5651;BME280;40241;52.684;9.758;2023-04-26T08:07:31;101474.00;;;11.77;52.06
5651;BME280;40241;52.684;9.758;2023-04-26T08:09:57;101476.09;;;11.82;51.94
5651;BME280;40241;52.684;9.758;2023-04-26T08:12:22;101480.03;;;11.96;52.12
5651;BME280;40241;52.684;9.758;2023-04-26T08:14:48;101474.66;;;12.07;51.80
5651;BME280;40241;52.684;9.758;2023-04-26T08:17:13;101470.53;;;12.17;51.69
5651;BME280;40241;52.684;9.758;2023-04-26T08:19:38;101467.91;;;12.28;51.32
5651;BME280;40241;52.684;9.758;2023-04-26T08:22:05;101472.59;;;12.42;51.25
5651;BME280;40241;52.684;9.758;2023-04-26T08:24:31;101474.00;;;12.58;51.21
5651;BME280;40241;52.684;9.758;2023-04-26T08:26:56;101469.47;;;12.80;50.92
5651;BME280;40241;52.684;9.758;2023-04-26T08:29:23;101464.47;;;12.85;50.72
5651;BME280;40241;52.684;9.758;2023-04-26T08:31:49;101470.56;;;12.89;50.00
5651;BME280;40241;52.684;9.758;2023-04-26T08:34:14;101472.16;;;13.01;50.13
5651;BME280;40241;52.684;9.758;2023-04-26T08:36:40;101472.94;;;13.01;49.78
5651;BME280;40241;52.684;9.758;2023-04-26T08:39:06;101471.19;;;13.04;49.81
5651;BME280;40241;52.684;9.758;2023-04-26T08:41:41;101476.13;;;13.20;48.93
5651;BME280;40241;52.684;9.758;2023-04-26T08:44:07;101475.00;;;13.37;49.42
5651;BME280;40241;52.684;9.758;2023-04-26T08:51:49;101483.09;;;13.46;49.12
5651;BME280;40241;52.684;9.758;2023-04-26T08:54:16;101485.91;;;13.52;49.20
5651;BME280;40241;52.684;9.758;2023-04-26T08:56:43;101470.25;;;13.80;48.91
5651;BME280;40241;52.684;9.758;2023-04-26T08:59:09;101481.31;;;13.80;48.06
5651;BME280;40241;52.684;9.758;2023-04-26T09:01:38;101477.41;;;13.56;47.84
5651;BME280;40241;52.684;9.758;2023-04-26T09:04:05;101479.41;;;13.55;48.12
5651;BME280;40241;52.684;9.758;2023-04-26T09:06:32;101474.06;;;13.46;48.22
5651;BME280;40241;52.684;9.758;2023-04-26T09:08:58;101488.53;;;13.67;48.14
5651;BME280;40241;52.684;9.758;2023-04-26T09:11:26;101486.63;;;13.84;47.91
5651;BME280;40241;52.684;9.758;2023-04-26T09:13:51;101476.44;;;14.06;47.63
5651;BME280;40241;52.684;9.758;2023-04-26T09:16:17;101470.03;;;14.37;47.21
5651;BME280;40241;52.684;9.758;2023-04-26T09:18:51;101471.56;;;14.55;44.34
5651;BME280;40241;52.684;9.758;2023-04-26T09:21:18;101475.31;;;14.41;46.64
5651;BME280;40241;52.684;9.758;2023-04-26T09:23:57;101480.78;;;14.24;45.71
5651;BME280;40241;52.684;9.758;2023-04-26T09:26:23;101483.31;;;14.27;46.92
5651;BME280;40241;52.684;9.758;2023-04-26T09:28:49;101487.56;;;14.17;46.81
5651;BME280;40241;52.684;9.758;2023-04-26T09:31:36;101479.34;;;14.34;45.15
5651;BME280;40241;52.684;9.758;2023-04-26T09:34:03;101481.63;;;14.41;46.07
5651;BME280;40241;52.684;9.758;2023-04-26T09:36:28;101482.28;;;14.25;46.35
5651;BME280;40241;52.684;9.758;2023-04-26T09:38:53;101489.50;;;14.06;46.38
5651;BME280;40241;52.684;9.758;2023-04-26T09:41:19;101494.97;;;13.95;46.55
5651;BME280;40241;52.684;9.758;2023-04-26T09:43:45;101493.44;;;13.94;46.49
5651;BME280;40241;52.684;9.758;2023-04-26T09:46:10;101496.97;;;13.94;46.32
5651;BME280;40241;52.684;9.758;2023-04-26T09:48:59;101498.56;;;14.06;44.84
5651;BME280;40241;52.684;9.758;2023-04-26T09:51:25;101491.31;;;14.20;46.08
5651;BME280;40241;52.684;9.758;2023-04-26T09:53:50;101484.38;;;14.36;46.21
5651;BME280;40241;52.684;9.758;2023-04-26T09:56:18;101496.50;;;14.49;46.00
5651;BME280;40241;52.684;9.758;2023-04-26T10:01:17;101484.69;;;14.60;44.67
5651;BME280;40241;52.684;9.758;2023-04-26T10:03:45;101481.16;;;14.54;44.78
5651;BME280;40241;52.684;9.758;2023-04-26T10:06:13;101490.97;;;14.44;44.74
5651;BME280;40241;52.684;9.758;2023-04-26T10:08:39;101491.91;;;14.30;45.27
5651;BME280;40241;52.684;9.758;2023-04-26T10:11:05;101496.84;;;14.14;45.45
5651;BME280;40241;52.684;9.758;2023-04-26T10:13:35;101495.50;;;13.99;45.53
5651;BME280;40241;52.684;9.758;2023-04-26T10:16:01;101492.94;;;13.90;45.49
5651;BME280;40241;52.684;9.758;2023-04-26T10:18:27;101486.38;;;13.87;45.79
5651;BME280;40241;52.684;9.758;2023-04-26T10:20:55;101488.88;;;13.85;45.61
5651;BME280;40241;52.684;9.758;2023-04-26T10:23:22;101485.91;;;13.89;45.38
5651;BME280;40241;52.684;9.758;2023-04-26T10:25:52;101485.91;;;13.89;45.20
5651;BME280;40241;52.684;9.758;2023-04-26T10:31:10;101492.72;;;13.99;45.42
5651;BME280;40241;52.684;9.758;2023-04-26T10:33:36;101491.00;;;14.01;45.25
5651;BME280;40241;52.684;9.758;2023-04-26T10:36:12;101491.75;;;14.02;43.91
5651;BME280;40241;52.684;9.758;2023-04-26T10:38:39;101491.25;;;14.03;45.08
5651;BME280;40241;52.684;9.758;2023-04-26T10:41:30;101481.97;;;14.12;43.60
5651;BME280;40241;52.684;9.758;2023-04-26T10:43:57;101482.38;;;14.42;45.13
5651;BME280;40241;52.684;9.758;2023-04-26T10:46:37;101470.63;;;14.80;43.50
5651;BME280;40241;52.684;9.758;2023-04-26T10:49:18;101474.94;;;14.97;42.97
5651;BME280;40241;52.684;9.758;2023-04-26T10:52:09;101479.72;;;15.14;42.88
5651;BME280;40241;52.684;9.758;2023-04-26T10:57:13;101468.38;;;15.06;43.77
5651;BME280;40241;52.684;9.758;2023-04-26T10:59:39;101466.88;;;14.88;43.78
5651;BME280;40241;52.684;9.758;2023-04-26T11:02:09;101477.44;;;14.84;43.47
5651;BME280;40241;52.684;9.758;2023-04-26T11:04:55;101474.91;;;14.81;42.11
5651;BME280;40241;52.684;9.758;2023-04-26T11:07:39;101469.66;;;14.83;41.87
5651;BME280;40241;52.684;9.758;2023-04-26T11:10:08;101465.13;;;15.02;43.03
5651;BME280;40241;52.684;9.758;2023-04-26T11:12:34;101461.34;;;15.11;43.42
5651;BME280;40241;52.684;9.758;2023-04-26T11:15:00;101472.94;;;15.26;43.31
5651;BME280;40241;52.684;9.758;2023-04-26T11:17:26;101465.34;;;15.32;43.43
5651;BME280;40241;52.684;9.758;2023-04-26T11:19:51;101458.81;;;15.35;42.86
5651;BME280;40241;52.684;9.758;2023-04-26T11:22:20;101463.59;;;15.23;42.57
5651;BME280;40241;52.684;9.758;2023-04-26T11:24:46;101463.09;;;15.08;43.25
5651;BME280;40241;52.684;9.758;2023-04-26T11:27:12;101468.38;;;14.95;43.11
5651;BME280;40241;52.684;9.758;2023-04-26T11:29:37;101465.34;;;14.93;43.61
5651;BME280;40241;52.684;9.758;2023-04-26T11:32:04;101462.59;;;14.98;43.29
5651;BME280;40241;52.684;9.758;2023-04-26T11:34:33;101462.59;;;14.98;42.86
5651;BME280;40241;52.684;9.758;2023-04-26T11:37:04;101494.31;;;14.92;42.96
5651;BME280;40241;52.684;9.758;2023-04-26T11:39:31;101462.31;;;14.80;43.09
5651;BME280;40241;52.684;9.758;2023-04-26T11:42:25;101467.34;;;14.70;42.07
5651;BME280;40241;52.684;9.758;2023-04-26T11:44:52;101475.91;;;14.67;42.98
5651;BME280;40241;52.684;9.758;2023-04-26T11:47:18;101474.84;;;14.53;43.17
5651;BME280;40241;52.684;9.758;2023-04-26T11:49:44;101484.41;;;14.41;43.29
5651;BME280;40241;52.684;9.758;2023-04-26T11:52:10;101484.06;;;14.28;43.23
5651;BME280;40241;52.684;9.758;2023-04-26T11:54:36;101498.06;;;14.13;43.57
5651;BME280;40241;52.684;9.758;2023-04-26T11:57:14;101500.53;;;14.00;42.78
5651;BME280;40241;52.684;9.758;2023-04-26T11:59:40;101496.00;;;13.97;43.77
5651;BME280;40241;52.684;9.758;2023-04-26T12:02:06;101493.75;;;14.01;43.79
5651;BME280;40241;52.684;9.758;2023-04-26T12:04:31;101493.59;;;14.21;43.64
5651;BME280;40241;52.684;9.758;2023-04-26T12:06:57;101488.69;;;14.48;43.46
5651;BME280;40241;52.684;9.758;2023-04-26T12:09:26;101489.47;;;14.59;42.59
5651;BME280;40241;52.684;9.758;2023-04-26T12:12:03;101491.81;;;14.83;41.84
5651;BME280;40241;52.684;9.758;2023-04-26T12:14:32;101490.53;;;15.00;42.65
5651;BME280;40241;52.684;9.758;2023-04-26T12:17:03;101491.06;;;15.05;42.32
5651;BME280;40241;52.684;9.758;2023-04-26T12:19:36;101494.59;;;14.99;41.81
5651;BME280;40241;52.684;9.758;2023-04-26T12:22:02;101505.94;;;15.01;42.52
5651;BME280;40241;52.684;9.758;2023-04-26T12:24:29;101502.41;;;15.07;42.50
5651;BME280;40241;52.684;9.758;2023-04-26T12:26:58;101505.94;;;15.13;42.45
5651;BME280;40241;52.684;9.758;2023-04-26T12:29:23;101495.88;;;15.15;42.04
5651;BME280;40241;52.684;9.758;2023-04-26T12:31:49;101502.41;;;15.40;42.16
5651;BME280;40241;52.684;9.758;2023-04-26T12:34:15;101495.81;;;15.87;42.10
5651;BME280;40241;52.684;9.758;2023-04-26T12:36:40;101489.84;;;16.35;41.93
5651;BME280;40241;52.684;9.758;2023-04-26T12:39:12;101489.16;;;16.70;41.44
5651;BME280;40241;52.684;9.758;2023-04-26T12:41:39;101494.03;;;16.99;41.36
5651;BME280;40241;52.684;9.758;2023-04-26T12:44:05;101496.16;;;17.17;40.85
5651;BME280;40241;52.684;9.758;2023-04-26T12:46:31;101485.03;;;17.17;40.68
5651;BME280;40241;52.684;9.758;2023-04-26T12:48:56;101497.84;;;16.96;40.75
5651;BME280;40241;52.684;9.758;2023-04-26T12:51:21;101490.75;;;16.60;40.50
5651;BME280;40241;52.684;9.758;2023-04-26T12:53:47;101490.75;;;16.60;41.26
5651;BME280;40241;52.684;9.758;2023-04-26T12:56:12;101496.06;;;16.98;41.22
5651;BME280;40241;52.684;9.758;2023-04-26T12:58:39;101493.34;;;17.22;40.58
5651;BME280;40241;52.684;9.758;2023-04-26T13:01:04;101489.47;;;17.31;39.92
5651;BME280;40241;52.684;9.758;2023-04-26T13:03:29;101492.81;;;17.24;40.36
5651;BME280;40241;52.684;9.758;2023-04-26T13:05:55;101491.72;;;17.03;40.04
5651;BME280;40241;52.684;9.758;2023-04-26T13:08:20;101491.50;;;16.60;40.21
5651;BME280;40241;52.684;9.758;2023-04-26T13:10:46;101497.50;;;16.18;40.41
5651;BME280;40241;52.684;9.758;2023-04-26T13:13:12;101497.81;;;15.87;40.87
5651;BME280;40241;52.684;9.758;2023-04-26T13:15:37;101493.34;;;15.61;41.19
5651;BME280;40241;52.684;9.758;2023-04-26T13:18:03;101505.16;;;15.40;41.23